createdAt,value
2023-04-17T00:01:16.727Z,31.30
2023-04-17T00:03:48.717Z,31.42
2023-04-17T00:06:21.074Z,33.53
2023-04-17T00:08:53.733Z,35.55
2023-04-17T00:11:26.800Z,38.03
2023-04-17T00:13:58.732Z,32.63
2023-04-17T00:16:31.075Z,32.05
2023-04-17T00:19:03.104Z,31.10
2023-04-17T00:21:35.418Z,30.63
2023-04-17T00:24:07.661Z,31.40
2023-04-17T00:26:40.760Z,31.20
2023-04-17T00:29:12.855Z,31.85
2023-04-17T00:31:45.505Z,36.33
2023-04-17T00:34:17.424Z,33.28
2023-04-17T00:36:49.677Z,35.90
2023-04-17T00:39:21.673Z,36.30
2023-04-17T00:41:53.971Z,34.35
2023-04-17T00:44:26.341Z,41.95
2023-04-17T00:46:59.074Z,40.00
2023-04-17T00:49:31.423Z,42.13
2023-04-17T00:52:03.888Z,43.15
2023-04-17T00:54:36.410Z,47.30
2023-04-17T00:57:08.721Z,46.08
2023-04-17T00:59:41.479Z,50.85
2023-04-17T01:02:13.975Z,50.90
2023-04-17T01:04:46.338Z,50.45
2023-04-17T01:07:19.154Z,53.97
2023-04-17T01:09:51.110Z,52.35
2023-04-17T01:12:25.005Z,55.47
2023-04-17T01:14:57.824Z,53.38
2023-04-17T01:17:31.290Z,54.33
2023-04-17T01:20:07.271Z,53.00
2023-04-17T01:22:39.861Z,52.40
2023-04-17T01:25:11.954Z,53.00
2023-04-17T01:27:45.193Z,51.15
2023-04-17T01:30:17.140Z,51.17
2023-04-17T01:32:58.376Z,48.92
2023-04-17T01:35:30.396Z,52.28
2023-04-17T01:38:03.787Z,56.63
2023-04-17T01:40:36.007Z,53.17
2023-04-17T01:43:09.191Z,55.33
2023-04-17T01:45:41.533Z,50.47
2023-04-17T01:48:14.544Z,51.10
2023-04-17T01:50:46.747Z,50.13
2023-04-17T01:53:19.387Z,52.40
2023-04-17T01:55:52.143Z,53.78
2023-04-17T01:58:24.860Z,54.13
2023-04-17T02:00:57.243Z,53.05
2023-04-17T02:03:29.942Z,51.28
2023-04-17T02:06:02.386Z,55.60
2023-04-17T02:08:34.999Z,48.30
2023-04-17T02:11:10.420Z,50.10
2023-04-17T02:13:42.311Z,50.38
2023-04-17T02:16:14.944Z,51.90
2023-04-17T02:18:48.392Z,50.88
2023-04-17T02:21:21.602Z,52.95
2023-04-17T02:23:53.873Z,50.75
2023-04-17T02:26:26.474Z,51.10
2023-04-17T02:28:58.393Z,53.97
2023-04-17T02:31:31.664Z,53.53
2023-04-17T02:34:03.582Z,50.15
2023-04-17T02:36:36.708Z,50.90
2023-04-17T02:39:09.072Z,48.63
2023-04-17T02:41:42.050Z,51.25
2023-04-17T02:44:14.646Z,48.70
2023-04-17T02:46:47.630Z,51.55
2023-04-17T02:49:19.959Z,50.33
2023-04-17T02:51:52.985Z,50.13
2023-04-17T02:54:24.948Z,53.53
2023-04-17T02:56:58.881Z,49.50
2023-04-17T02:59:31.013Z,47.53
2023-04-17T03:02:04.572Z,51.58
2023-04-17T03:04:38.742Z,51.85
2023-04-17T03:07:11.550Z,48.33
2023-04-17T03:09:47.145Z,52.25
2023-04-17T03:12:20.195Z,51.47
2023-04-17T03:14:52.260Z,50.35
2023-04-17T03:17:24.938Z,48.40
2023-04-17T03:19:57.440Z,49.83
2023-04-17T03:22:30.083Z,53.43
2023-04-17T03:25:02.804Z,46.10
2023-04-17T03:27:41.821Z,45.38
2023-04-17T03:30:15.030Z,40.42
2023-04-17T03:32:51.373Z,41.45
2023-04-17T03:35:25.234Z,45.15
2023-04-17T03:37:57.159Z,43.42
2023-04-17T03:40:30.700Z,42.08
2023-04-17T03:43:04.362Z,44.20
2023-04-17T03:45:38.061Z,44.28
2023-04-17T03:48:10.456Z,42.28
2023-04-17T03:50:44.161Z,47.13
2023-04-17T03:53:16.507Z,46.33
2023-04-17T03:55:49.280Z,45.45
2023-04-17T03:58:29.927Z,46.25
2023-04-17T04:01:03.741Z,46.28
2023-04-17T04:03:39.967Z,44.13
2023-04-17T04:06:12.629Z,48.42
2023-04-17T04:08:45.363Z,49.83
2023-04-17T04:11:18.264Z,47.05
2023-04-17T04:13:50.347Z,46.70
2023-04-17T04:16:23.036Z,48.97
2023-04-17T04:18:58.424Z,53.20
2023-04-17T04:21:31.414Z,54.38
2023-04-17T04:24:03.398Z,66.72
2023-04-17T04:26:37.258Z,67.97
2023-04-17T04:29:09.929Z,65.35
2023-04-17T04:31:53.659Z,70.65
2023-04-17T04:34:30.215Z,65.88
2023-04-17T04:37:02.207Z,67.22
2023-04-17T04:39:43.465Z,70.07
2023-04-17T04:42:22.977Z,70.40
2023-04-17T04:45:07.385Z,69.43
2023-04-17T04:47:41.184Z,72.93
2023-04-17T04:50:13.873Z,64.32
2023-04-17T04:52:46.041Z,68.07
2023-04-17T04:55:35.905Z,69.75
2023-04-17T04:58:07.826Z,70.72
2023-04-17T05:00:43.918Z,70.65
2023-04-17T05:03:22.470Z,66.65
2023-04-17T05:05:56.161Z,63.23
2023-04-17T05:08:33.306Z,64.03
2023-04-17T05:11:14.841Z,69.72
2023-04-17T05:13:47.602Z,76.85
2023-04-17T05:16:28.753Z,69.38
2023-04-17T05:19:01.572Z,66.75
2023-04-17T05:21:50.642Z,68.38
2023-04-17T05:24:25.725Z,70.22
2023-04-17T05:26:58.191Z,66.50
2023-04-17T05:29:30.899Z,65.93
2023-04-17T05:32:04.527Z,66.95
2023-04-17T05:34:56.680Z,65.55
2023-04-17T05:37:31.678Z,70.18
2023-04-17T05:40:06.918Z,64.63
2023-04-17T05:42:39.414Z,64.43
2023-04-17T05:45:15.405Z,68.77
2023-04-17T05:47:47.790Z,67.05
2023-04-17T05:50:20.503Z,62.15
2023-04-17T05:52:52.752Z,64.25
2023-04-17T05:55:28.103Z,63.15
2023-04-17T05:58:07.996Z,60.95
2023-04-17T06:00:56.366Z,62.55
2023-04-17T06:03:29.470Z,61.55
2023-04-17T06:06:11.104Z,58.75
2023-04-17T06:08:43.397Z,62.15
2023-04-17T06:11:17.490Z,60.47
2023-04-17T06:13:51.933Z,54.53
2023-04-17T06:16:24.957Z,54.47
2023-04-17T06:18:56.854Z,54.60
2023-04-17T06:21:29.478Z,56.15
2023-04-17T06:24:06.513Z,53.90
2023-04-17T06:26:39.090Z,53.17
2023-04-17T06:29:13.905Z,51.10
2023-04-17T06:31:47.102Z,47.85
2023-04-17T06:34:22.170Z,50.90
2023-04-17T06:36:55.217Z,48.70
2023-04-17T06:39:27.600Z,49.40
2023-04-17T06:42:00.767Z,45.90
2023-04-17T06:44:33.274Z,40.72
2023-04-17T06:47:06.954Z,41.67
2023-04-17T06:49:43.022Z,42.37
2023-04-17T06:52:20.513Z,39.53
2023-04-17T06:54:54.896Z,39.42
2023-04-17T06:57:27.888Z,40.20
2023-04-17T06:59:59.981Z,41.80
2023-04-17T07:02:32.729Z,39.87
2023-04-17T07:05:08.474Z,40.25
2023-04-17T07:07:41.524Z,36.83
2023-04-17T07:10:16.265Z,39.33
2023-04-17T07:12:48.192Z,40.25
2023-04-17T07:15:21.043Z,38.75
2023-04-17T07:17:52.947Z,35.50
2023-04-17T07:20:25.569Z,39.22
2023-04-17T07:22:57.468Z,37.22
2023-04-17T07:25:30.090Z,37.20
2023-04-17T07:28:04.408Z,38.47
2023-04-17T07:30:37.677Z,34.13
2023-04-17T07:33:10.287Z,35.80
2023-04-17T07:35:43.751Z,39.22
2023-04-17T07:38:16.059Z,37.38
2023-04-17T07:40:48.628Z,35.28
2023-04-17T07:43:20.899Z,34.55
2023-04-17T07:45:54.012Z,33.40
2023-04-17T07:48:27.306Z,34.05
2023-04-17T07:51:03.371Z,37.80
2023-04-17T07:53:36.221Z,34.55
2023-04-17T07:56:08.507Z,33.67
2023-04-17T07:58:40.394Z,28.33
2023-04-17T08:01:13.968Z,30.15
2023-04-17T08:03:46.194Z,27.58
2023-04-17T08:06:19.215Z,25.63
2023-04-17T08:08:51.116Z,22.92
2023-04-17T08:11:23.834Z,23.77
2023-04-17T08:13:55.894Z,27.17
2023-04-17T08:16:28.378Z,23.48
2023-04-17T08:19:00.538Z,20.10
2023-04-17T08:21:33.237Z,24.50
2023-04-17T08:24:05.854Z,20.90
2023-04-17T08:26:38.453Z,20.95
2023-04-17T08:29:10.521Z,20.92
2023-04-17T08:31:43.647Z,19.42
2023-04-17T08:34:15.843Z,18.67
2023-04-17T08:36:48.490Z,28.02
2023-04-17T08:39:20.668Z,21.02
2023-04-17T08:42:03.213Z,24.20
2023-04-17T08:44:35.730Z,24.00
2023-04-17T08:47:09.730Z,21.25
2023-04-17T08:49:43.770Z,20.55
2023-04-17T08:52:17.161Z,21.40
2023-04-17T08:54:51.364Z,24.40
2023-04-17T08:57:24.183Z,19.25
2023-04-17T08:59:56.320Z,20.20
2023-04-17T09:02:28.747Z,20.40
2023-04-17T09:05:01.753Z,19.42
2023-04-17T09:07:34.585Z,18.50
2023-04-17T09:10:07.041Z,16.98
2023-04-17T09:12:42.097Z,17.92
2023-04-17T09:15:17.956Z,18.38
2023-04-17T09:17:50.884Z,15.75
2023-04-17T09:20:22.963Z,14.90
2023-04-17T09:23:05.704Z,18.73
2023-04-17T09:25:37.955Z,13.40
2023-04-17T09:28:13.717Z,16.55
2023-04-17T09:30:46.822Z,14.50
2023-04-17T09:33:18.692Z,14.65
2023-04-17T09:35:51.436Z,17.50
2023-04-17T09:38:39.964Z,17.13
2023-04-17T09:41:27.926Z,14.75
2023-04-17T09:44:01.889Z,15.52
2023-04-17T09:46:39.152Z,12.60
2023-04-17T09:49:42.680Z,13.20
2023-04-17T09:52:15.951Z,9.25
2023-04-17T09:54:49.236Z,11.60
2023-04-17T09:57:21.932Z,9.52
2023-04-17T09:59:57.745Z,9.63
2023-04-17T10:02:29.938Z,8.45
2023-04-17T10:05:04.933Z,10.00
2023-04-17T10:07:37.889Z,11.18
2023-04-17T10:10:13.717Z,8.90
2023-04-17T10:12:49.469Z,8.80
2023-04-17T10:15:23.916Z,11.68
2023-04-17T10:18:23.662Z,8.15
2023-04-17T10:20:57.156Z,10.95
2023-04-17T10:23:34.830Z,9.77
2023-04-17T10:26:25.831Z,8.98
2023-04-17T10:28:58.175Z,9.75
2023-04-17T10:32:09.052Z,9.60
2023-04-17T10:34:43.884Z,7.63
2023-04-17T10:37:17.446Z,7.20
2023-04-17T10:39:56.729Z,8.32
2023-04-17T10:42:30.598Z,9.02
2023-04-17T10:45:05.232Z,6.77
2023-04-17T10:47:39.317Z,8.63
2023-04-17T10:50:11.318Z,7.47
2023-04-17T10:52:45.748Z,8.45
2023-04-17T10:55:23.567Z,14.07
2023-04-17T10:58:05.799Z,9.20
2023-04-17T11:00:50.002Z,11.95
2023-04-17T11:03:26.926Z,9.10
2023-04-17T11:06:00.575Z,8.48
2023-04-17T11:08:32.569Z,8.90
2023-04-17T11:11:05.279Z,8.90
2023-04-17T11:13:37.623Z,8.50
2023-04-17T11:16:10.209Z,8.20
2023-04-17T11:18:45.970Z,13.98
2023-04-17T11:21:19.252Z,10.98
2023-04-17T11:23:55.028Z,8.23
2023-04-17T11:26:27.676Z,7.53
2023-04-17T11:29:01.042Z,7.07
2023-04-17T11:31:33.798Z,8.25
2023-04-17T11:34:08.350Z,8.25
2023-04-17T11:36:41.087Z,11.40
2023-04-17T11:39:15.754Z,7.43
2023-04-17T11:41:48.075Z,7.18
2023-04-17T11:44:21.015Z,7.65
2023-04-17T11:46:59.238Z,5.75
2023-04-17T11:49:33.470Z,5.73
2023-04-17T11:52:06.422Z,7.72
2023-04-17T11:54:38.623Z,6.95
2023-04-17T11:57:15.079Z,6.65
2023-04-17T11:59:46.990Z,5.30
2023-04-17T12:02:33.980Z,5.78
2023-04-17T12:05:18.357Z,6.35
2023-04-17T12:08:06.330Z,5.13
2023-04-17T12:10:44.808Z,8.40
2023-04-17T12:13:16.684Z,6.25
2023-04-17T12:15:49.976Z,5.57
2023-04-17T12:18:22.308Z,5.57
2023-04-17T12:20:55.400Z,5.25
2023-04-17T12:23:27.270Z,5.07
2023-04-17T12:25:59.917Z,5.15
2023-04-17T12:28:31.840Z,7.30
2023-04-17T12:31:05.360Z,4.97
2023-04-17T12:33:37.695Z,6.90
2023-04-17T12:36:10.494Z,4.95
2023-04-17T12:38:43.112Z,5.13
2023-04-17T12:41:15.803Z,4.77
2023-04-17T12:43:47.717Z,4.38
2023-04-17T12:46:20.795Z,5.78
2023-04-17T12:48:59.183Z,4.28
2023-04-17T12:51:37.948Z,4.93
2023-04-17T12:54:10.299Z,5.07
2023-04-17T12:56:43.262Z,5.18
2023-04-17T12:59:15.254Z,4.50
2023-04-17T13:01:47.861Z,3.92
2023-04-17T13:04:20.173Z,3.78
2023-04-17T13:06:54.896Z,3.83
2023-04-17T13:09:26.804Z,3.90
2023-04-17T13:11:59.073Z,4.63
2023-04-17T13:14:30.976Z,5.07
2023-04-17T13:17:04.214Z,4.07
2023-04-17T13:19:36.832Z,3.53
2023-04-17T13:22:09.327Z,4.53
2023-04-17T13:24:41.897Z,3.70
2023-04-17T13:27:14.947Z,4.32
2023-04-17T13:29:46.794Z,9.10
2023-04-17T13:32:19.418Z,4.88
2023-04-17T13:34:52.044Z,5.40
2023-04-17T13:37:24.527Z,3.58
2023-04-17T13:39:57.135Z,3.30
2023-04-17T13:42:29.023Z,3.65
2023-04-17T13:45:01.601Z,3.60
2023-04-17T13:47:33.548Z,3.60
2023-04-17T13:50:07.150Z,4.22
2023-04-17T13:52:39.122Z,4.78
2023-04-17T13:55:14.827Z,6.32
2023-04-17T13:57:47.301Z,4.35
2023-04-17T14:00:22.359Z,4.13
2023-04-17T14:02:54.341Z,3.80
2023-04-17T14:05:27.048Z,3.45
2023-04-17T14:07:59.100Z,3.47
2023-04-17T14:10:31.358Z,3.40
2023-04-17T14:13:03.281Z,4.00
2023-04-17T14:15:36.009Z,3.70
2023-04-17T14:18:09.737Z,4.32
2023-04-17T14:20:42.435Z,4.05
2023-04-17T14:23:14.377Z,3.83
2023-04-17T14:25:47.315Z,4.45
2023-04-17T14:28:21.015Z,4.20
2023-04-17T14:30:53.518Z,3.97
2023-04-17T14:33:25.684Z,4.38
2023-04-17T14:35:58.673Z,4.47
2023-04-17T14:38:30.716Z,3.97
2023-04-17T14:41:03.559Z,3.60
2023-04-17T14:43:35.630Z,4.03
2023-04-17T14:46:08.277Z,3.97
2023-04-17T14:48:54.264Z,4.17
2023-04-17T14:51:30.222Z,4.43
2023-04-17T14:54:03.402Z,3.97
2023-04-17T14:56:35.324Z,4.10
2023-04-17T14:59:07.722Z,5.38
2023-04-17T15:01:39.668Z,3.80
2023-04-17T15:04:12.796Z,4.38
2023-04-17T15:06:45.021Z,4.45
2023-04-17T15:09:17.283Z,4.38
2023-04-17T15:11:49.235Z,4.53
2023-04-17T15:14:22.214Z,4.30
2023-04-17T15:16:54.246Z,4.72
2023-04-17T15:19:26.972Z,4.05
2023-04-17T15:21:58.848Z,5.00
2023-04-17T15:24:32.230Z,8.07
2023-04-17T15:27:04.171Z,4.73
2023-04-17T15:29:37.183Z,4.00
2023-04-17T15:32:09.550Z,5.80
2023-04-17T15:34:42.182Z,4.40
2023-04-17T15:37:14.118Z,4.18
2023-04-17T15:39:46.823Z,4.15
2023-04-17T15:42:18.765Z,3.42
2023-04-17T15:44:51.419Z,4.22
2023-04-17T15:47:23.827Z,3.72
2023-04-17T15:49:56.518Z,3.90
2023-04-17T15:52:28.861Z,6.18
2023-04-17T15:55:01.900Z,6.85
2023-04-17T15:57:33.857Z,4.95
2023-04-17T16:00:07.645Z,3.80
2023-04-17T16:02:42.742Z,3.95
2023-04-17T16:05:19.010Z,3.80
2023-04-17T16:07:51.384Z,4.57
2023-04-17T16:10:24.169Z,4.50
2023-04-17T16:12:56.484Z,4.72
2023-04-17T16:15:29.111Z,4.05
2023-04-17T16:18:02.478Z,4.53
2023-04-17T16:20:35.365Z,4.28
2023-04-17T16:23:08.088Z,4.43
2023-04-17T16:25:40.366Z,4.50
2023-04-17T16:28:13.048Z,4.78
2023-04-17T16:30:45.042Z,4.23
2023-04-17T16:33:17.671Z,4.60
2023-04-17T16:35:49.990Z,4.40
2023-04-17T16:38:23.099Z,4.43
2023-04-17T16:40:57.072Z,4.85
2023-04-17T16:43:33.555Z,9.43
2023-04-17T16:46:14.319Z,6.40
2023-04-17T16:48:51.548Z,6.70
2023-04-17T16:51:26.985Z,5.90
2023-04-17T16:54:00.764Z,6.55
2023-04-17T16:56:33.259Z,6.43
2023-04-17T16:59:06.191Z,4.82
2023-04-17T17:01:38.157Z,7.18
2023-04-17T17:04:10.930Z,8.98
2023-04-17T17:06:43.322Z,6.57
2023-04-17T17:09:16.093Z,5.45
2023-04-17T17:11:48.684Z,8.98
2023-04-17T17:14:21.390Z,5.85
2023-04-17T17:16:53.797Z,7.63
2023-04-17T17:19:27.111Z,5.43
2023-04-17T17:21:59.046Z,5.63
2023-04-17T17:24:31.759Z,5.70
2023-04-17T17:27:04.081Z,4.60
2023-04-17T17:29:36.636Z,4.50
2023-04-17T17:32:09.294Z,5.70
2023-04-17T17:34:41.982Z,5.22
2023-04-17T17:37:14.261Z,5.10
2023-04-17T17:39:47.239Z,5.72
2023-04-17T17:42:19.527Z,5.07
2023-04-17T17:44:52.535Z,4.43
2023-04-17T17:47:24.473Z,4.80
2023-04-17T17:49:57.514Z,4.72
2023-04-17T17:52:29.402Z,4.80
2023-04-17T17:55:02.273Z,5.60
2023-04-17T17:57:45.998Z,5.10
2023-04-17T18:00:21.360Z,3.83
2023-04-17T18:02:53.508Z,4.50
2023-04-17T18:05:26.340Z,4.45
2023-04-17T18:07:58.396Z,4.50
2023-04-17T18:10:30.721Z,4.05
2023-04-17T18:13:03.200Z,4.00
2023-04-17T18:15:36.679Z,4.25
2023-04-17T18:18:08.734Z,4.18
2023-04-17T18:20:41.364Z,4.35
2023-04-17T18:23:13.224Z,4.40
2023-04-17T18:25:45.881Z,4.07
2023-04-17T18:28:18.146Z,3.72
2023-04-17T18:30:50.872Z,5.60
2023-04-17T18:33:22.943Z,5.35
2023-04-17T18:35:55.931Z,3.60
2023-04-17T18:38:27.829Z,5.85
2023-04-17T18:41:01.488Z,4.63
2023-04-17T18:43:33.443Z,4.05
2023-04-17T18:46:08.086Z,4.30
2023-04-17T18:48:40.978Z,4.97
2023-04-17T18:51:14.741Z,4.38
2023-04-17T18:53:47.451Z,4.55
2023-04-17T18:56:19.828Z,5.40
2023-04-17T18:58:53.295Z,5.15
2023-04-17T19:01:25.168Z,3.60
2023-04-17T19:03:57.768Z,4.03
2023-04-17T19:06:31.131Z,4.28
2023-04-17T19:09:04.088Z,4.57
2023-04-17T19:11:36.205Z,3.95
2023-04-17T19:14:09.210Z,4.17
2023-04-17T19:16:41.597Z,5.28
2023-04-17T19:19:14.537Z,4.28
2023-04-17T19:21:46.556Z,3.83
2023-04-17T19:24:19.610Z,5.20
2023-04-17T19:26:51.539Z,4.20
2023-04-17T19:29:24.582Z,7.57
2023-04-17T19:31:56.539Z,5.20
2023-04-17T19:34:29.610Z,4.38
2023-04-17T19:37:01.534Z,3.97
2023-04-17T19:39:34.150Z,4.00
2023-04-17T19:42:06.713Z,4.55
2023-04-17T19:44:39.704Z,4.03
2023-04-17T19:47:12.132Z,4.25
2023-04-17T19:49:45.166Z,4.90
2023-04-17T19:52:17.079Z,4.03
2023-04-17T19:54:51.212Z,3.83
2023-04-17T19:57:23.150Z,32.20
2023-04-17T19:59:55.760Z,6.82
2023-04-17T20:02:27.843Z,4.57
2023-04-17T20:05:00.960Z,6.50
2023-04-17T20:07:33.353Z,5.00
2023-04-17T20:10:06.753Z,4.32
2023-04-17T20:12:39.086Z,5.13
2023-04-17T20:15:11.497Z,4.15
2023-04-17T20:17:44.252Z,4.80
2023-04-17T20:20:16.268Z,5.45
2023-04-17T20:22:49.433Z,4.70
2023-04-17T20:25:21.330Z,5.43
2023-04-17T20:27:55.514Z,5.20
2023-04-17T20:30:29.061Z,5.55
2023-04-17T20:33:01.961Z,4.82
2023-04-17T20:35:34.059Z,6.00
2023-04-17T20:38:06.615Z,4.78
2023-04-17T20:40:38.976Z,6.65
2023-04-17T20:43:13.344Z,5.13
2023-04-17T20:45:45.283Z,4.72
2023-04-17T20:48:18.722Z,4.45
2023-04-17T20:50:51.277Z,5.10
2023-04-17T20:53:23.876Z,5.07
2023-04-17T20:55:57.788Z,6.70
2023-04-17T20:58:30.611Z,6.40
2023-04-17T21:01:03.485Z,6.38
2023-04-17T21:03:36.100Z,4.68
2023-04-17T21:06:08.164Z,5.20
2023-04-17T21:08:40.897Z,4.77
2023-04-17T21:11:12.777Z,5.78
2023-04-17T21:13:45.813Z,5.35
2023-04-17T21:16:18.129Z,6.22
2023-04-17T21:18:50.839Z,14.68
2023-04-17T21:21:22.730Z,4.95
2023-04-17T21:23:55.273Z,4.80
2023-04-17T21:26:27.550Z,5.35
2023-04-17T21:29:00.133Z,6.10
2023-04-17T21:31:32.200Z,7.95
2023-04-17T21:34:04.815Z,6.15
2023-04-17T21:36:36.768Z,5.13
2023-04-17T21:39:09.715Z,5.03
2023-04-17T21:41:41.612Z,5.47
2023-04-17T21:44:15.224Z,7.70
2023-04-17T21:46:47.386Z,5.35
2023-04-17T21:49:21.022Z,7.20
2023-04-17T21:51:53.279Z,5.72
2023-04-17T21:54:26.726Z,5.85
2023-04-17T21:56:59.448Z,5.65
2023-04-17T21:59:31.364Z,7.53
2023-04-17T22:02:04.588Z,5.30
2023-04-17T22:04:37.102Z,7.05
2023-04-17T22:07:10.241Z,5.78
2023-04-17T22:09:42.127Z,5.35
2023-04-17T22:12:18.080Z,5.60
2023-04-17T22:14:50.289Z,5.18
2023-04-17T22:17:22.617Z,5.57
2023-04-17T22:19:55.797Z,5.45
2023-04-17T22:22:28.353Z,7.07
2023-04-17T22:25:00.232Z,6.40
2023-04-17T22:27:32.880Z,5.78
2023-04-17T22:30:06.305Z,7.22
2023-04-17T22:32:38.898Z,5.30
2023-04-17T22:35:11.257Z,5.80
2023-04-17T22:37:43.918Z,5.57
2023-04-17T22:40:16.278Z,9.40
2023-04-17T22:42:50.291Z,13.55
2023-04-17T22:45:22.596Z,7.30
2023-04-17T22:47:55.241Z,10.63
2023-04-17T22:50:30.270Z,8.70
2023-04-17T22:53:03.693Z,9.20
2023-04-17T22:55:36.466Z,10.80
2023-04-17T22:58:08.508Z,9.73
2023-04-17T23:00:41.490Z,7.50
2023-04-17T23:03:14.197Z,6.57
2023-04-17T23:05:47.277Z,7.43
2023-04-17T23:08:19.240Z,6.38
2023-04-17T23:11:02.130Z,5.88
2023-04-17T23:13:34.507Z,7.28
2023-04-17T23:16:07.508Z,8.77
2023-04-17T23:18:39.773Z,8.30
2023-04-17T23:21:12.346Z,8.48
2023-04-17T23:23:45.252Z,9.30
2023-04-17T23:26:21.718Z,8.13
2023-04-17T23:28:53.586Z,8.53
2023-04-17T23:31:26.612Z,8.82
2023-04-17T23:33:58.538Z,9.43
2023-04-17T23:36:31.978Z,9.98
2023-04-17T23:39:05.629Z,10.23
2023-04-17T23:41:42.493Z,9.30
2023-04-17T23:44:14.832Z,9.23
2023-04-17T23:46:47.943Z,8.68
2023-04-17T23:49:19.914Z,10.27
2023-04-17T23:51:52.466Z,8.00
2023-04-17T23:54:24.504Z,10.17
2023-04-17T23:56:57.174Z,8.50
2023-04-17T23:59:29.437Z,8.98
